.
WxDataArchive / Data Records for 2015-09-14
2015-09-13 September 2015 2015-09-15

Data Records for Monday, 14 September 2015

Time	Temp	Chill	HIndex	Humid	Dewpt	 Wind 	HiWind	WindDir	Rain 	Barom 
-----	----	-----	------	-----	-----	------	------	-------	-----	----- 
00:00	49.4	49.4	49.4	86	45.4	0	0	---	0.00	30.019 
00:05	49.2	49.2	49.2	86	45.2	0	0	---	0.00	30.019 
00:10	49.2	49.2	49.2	86	45.2	0	0	---	0.00	30.019 
00:15	49.1	49.1	49.1	87	45.4	0	0	---	0.00	30.020 
00:20	48.9	48.9	48.9	87	45.2	0	0	---	0.00	30.020 
00:25	48.9	48.9	48.9	87	45.2	0	0	---	0.00	30.020 
00:30	48.8	48.8	48.8	87	45.1	0	0	---	0.00	30.023 
00:35	48.8	48.8	48.8	87	45.1	0	0	---	0.00	30.023 
00:40	48.6	48.6	48.6	88	45.2	0	0	---	0.00	30.023 
00:45	48.6	48.6	48.6	88	45.2	0	0	---	0.00	30.026 
00:50	48.5	48.5	48.5	88	45.1	0	0	---	0.00	30.026 
00:55	48.5	48.5	48.5	88	45.1	0	0	---	0.00	30.026 
01:00	48.3	48.3	48.3	88	44.9	0	0	---	0.00	30.028 
01:05	48.3	48.3	48.3	88	44.9	0	0	---	0.00	30.028 
01:10	48.2	48.2	48.2	88	44.8	0	0	---	0.00	30.028 
01:15	48.2	48.2	48.2	88	44.8	0	0	---	0.00	30.026 
01:20	48.0	48.0	48.0	89	44.9	0	0	---	0.00	30.026 
01:25	48.0	48.0	48.0	89	44.9	0	0	---	0.00	30.026 
01:30	48.0	48.0	48.0	89	44.9	0	0	---	0.00	30.026 
01:35	48.0	48.0	48.0	89	44.9	0	0	---	0.00	30.026 
01:40	47.9	47.9	47.9	89	44.8	0	0	---	0.00	30.026 
01:45	47.9	47.9	47.9	90	45.1	0	0	---	0.00	30.029 
01:50	47.9	47.9	47.9	90	45.1	0	0	---	0.00	30.029 
01:55	47.9	47.9	47.9	90	45.1	0	0	---	0.00	30.029 
02:00	47.9	47.9	47.9	90	45.1	0	0	---	0.00	30.029 
02:05	47.9	47.9	47.9	90	45.1	0	0	---	0.00	30.029 
02:10	47.7	47.7	47.7	90	44.9	0	0	---	0.00	30.029 
02:15	47.7	47.7	47.7	90	44.9	0	0	---	0.00	30.033 
02:20	47.7	47.7	47.7	90	44.9	0	0	---	0.00	30.033 
02:25	47.6	47.6	47.6	91	45.1	0	0	---	0.00	30.033 
02:30	47.6	47.6	47.6	91	45.1	0	0	---	0.00	30.039 
02:35	47.6	47.6	47.6	91	45.1	0	0	---	0.00	30.039 
02:40	47.4	47.4	47.4	91	44.9	0	0	---	0.00	30.039 
02:45	47.4	47.4	47.4	91	44.9	0	0	---	0.00	30.040 
02:50	47.4	47.4	47.4	91	44.9	0	0	---	0.00	30.040 
02:55	47.4	47.4	47.4	91	44.9	0	0	---	0.00	30.040 
03:00	47.4	47.4	47.4	91	44.9	0	0	---	0.00	30.045 
03:05	47.4	47.4	47.4	91	44.9	0	0	---	0.00	30.045 
03:10	47.4	47.4	47.4	91	44.9	0	0	---	0.00	30.045 
03:15	47.3	47.3	47.3	91	44.8	0	0	---	0.00	30.053 
03:20	47.3	47.3	47.3	91	44.8	0	0	---	0.00	30.053 
03:25	47.3	47.3	47.3	91	44.8	0	0	---	0.00	30.053 
03:30	47.1	47.1	47.1	91	44.6	0	0	---	0.00	30.053 
03:35	47.1	47.1	47.1	91	44.6	0	0	---	0.00	30.053 
03:40	47.1	47.1	47.1	92	44.9	0	0	---	0.00	30.053 
03:45	47.1	47.1	47.1	92	44.9	0	0	---	0.00	30.057 
03:50	47.1	47.1	47.1	92	44.9	0	0	---	0.00	30.057 
03:55	47.0	47.0	47.0	92	44.8	0	0	---	0.00	30.057 
04:00	47.0	47.0	47.0	92	44.8	0	0	---	0.00	30.058 
04:05	46.8	46.8	46.8	92	44.6	0	0	---	0.00	30.058 
04:10	46.8	46.8	46.8	92	44.6	0	0	---	0.00	30.058 
04:15	46.8	46.8	46.8	92	44.6	0	0	---	0.00	30.058 
04:20	46.7	46.7	46.7	92	44.5	0	0	---	0.00	30.058 
04:25	46.7	46.7	46.7	92	44.5	0	0	---	0.00	30.058 
04:30	46.7	46.7	46.7	92	44.5	0	0	---	0.00	30.059 
04:35	46.8	46.8	46.8	92	44.6	0	0	---	0.00	30.059 
04:40	47.1	47.1	47.1	92	44.9	0	0	---	0.00	30.059 
04:45	47.6	47.6	47.6	93	45.7	0	0	---	0.00	30.058 
04:50	48.0	48.0	48.0	92	45.8	0	0	---	0.00	30.058 
04:55	48.3	48.3	48.3	92	46.1	0	0	---	0.00	30.058 
05:00	48.8	48.8	48.8	91	46.3	0	0	---	0.00	30.058 
05:05	49.2	49.2	49.2	91	46.7	0	0	---	0.00	30.058 
05:10	49.5	49.5	49.5	90	46.7	0	0	---	0.00	30.058 
05:15	49.6	49.6	49.6	89	46.5	0	0	---	0.00	30.057 
05:20	49.9	49.9	49.9	88	46.5	0	0	---	0.00	30.057 
05:25	50.1	50.1	50.1	87	46.4	0	0	---	0.00	30.057 
05:30	50.2	50.2	50.2	86	46.2	0	0	---	0.00	30.066 
05:35	50.4	50.4	50.4	86	46.4	0	0	---	0.00	30.066 
05:40	50.5	50.5	50.5	85	46.2	0	0	---	0.00	30.066 
05:45	50.7	50.7	50.7	84	46.0	0	0	---	0.00	30.069 
05:50	50.8	50.8	50.8	84	46.1	0	0	---	0.00	30.069 
05:55	50.8	50.8	50.8	83	45.8	0	0	---	0.00	30.069 
06:00	50.8	50.8	50.8	83	45.8	0	0	---	0.00	30.070 
06:05	50.8	50.8	50.8	83	45.8	0	0	---	0.00	30.070 
06:10	50.8	50.8	50.8	83	45.8	0	0	---	0.00	30.070 
06:15	50.8	50.8	50.8	83	45.8	0	0	---	0.00	30.072 
06:20	50.8	50.8	50.8	83	45.8	0	0	---	0.00	30.072 
06:25	50.7	50.7	50.7	83	45.7	0	0	---	0.00	30.072 
06:30	50.7	50.7	50.7	83	45.7	0	0	---	0.00	30.075 
06:35	50.5	50.5	50.5	83	45.5	0	0	---	0.00	30.075 
06:40	50.5	50.5	50.5	83	45.5	0	0	---	0.00	30.075 
06:45	50.4	50.4	50.4	84	45.7	0	0	---	0.00	30.085 
06:50	50.4	50.4	50.4	84	45.7	0	0	---	0.00	30.085 
06:55	50.2	50.2	50.2	84	45.6	0	0	---	0.00	30.085 
07:00	50.2	50.2	50.2	84	45.6	0	0	---	0.00	30.087 
07:05	50.2	50.2	50.2	84	45.6	0	0	---	0.00	30.087 
07:10	50.2	50.2	50.2	84	45.6	0	0	---	0.00	30.087 
07:15	50.1	50.1	50.1	84	45.5	0	0	---	0.00	30.100 
07:20	50.1	50.1	50.1	84	45.5	0	0	---	0.00	30.100 
07:25	50.1	50.1	50.1	84	45.5	0	0	---	0.00	30.100 
07:30	50.1	50.1	50.1	84	45.5	0	0	---	0.00	30.104 
07:35	49.9	49.9	49.9	85	45.6	0	0	---	0.00	30.104 
07:40	49.9	49.9	49.9	85	45.6	0	0	---	0.00	30.104 
07:45	49.9	49.9	49.9	85	45.6	0	0	---	0.00	30.108 
07:50	50.1	50.1	50.1	85	45.8	0	0	---	0.00	30.108 
07:55	50.2	50.2	50.2	85	45.9	0	0	---	0.00	30.108 
08:00	50.4	50.4	50.4	85	46.1	0	0	---	0.00	30.115 
08:05	50.7	50.7	50.7	85	46.4	0	0	---	0.00	30.115 
08:10	51.0	51.0	51.0	85	46.7	0	1	292	0.00	30.115 
08:15	51.3	51.3	51.3	84	46.6	0	0	---	0.00	30.124 
08:20	51.6	51.6	51.6	84	46.9	0	1	292	0.00	30.124 
08:25	52.0	52.0	52.0	84	47.3	0	0	---	0.00	30.124 
08:30	52.3	52.3	52.3	83	47.3	0	0	---	0.00	30.126 
08:35	52.8	52.8	52.8	82	47.5	0	0	---	0.00	30.126 
08:40	53.2	53.2	53.2	81	47.5	0	1	292	0.00	30.126 
08:45	53.5	53.5	53.5	80	47.5	0	1	292	0.00	30.128 
08:50	53.9	53.9	53.9	80	47.9	0	1	292	0.00	30.128 
08:55	54.4	54.4	54.4	78	47.7	0	1	292	0.00	30.128 
09:00	54.8	54.8	54.8	77	47.7	0	1	292	0.00	30.136 
09:05	55.3	55.3	55.3	76	47.9	0	1	292	0.00	30.136 
09:10	55.6	55.6	55.6	75	47.8	0	1	292	0.00	30.136 
09:15	56.0	56.0	56.0	74	47.8	0	1	292	0.00	30.141 
09:20	56.5	56.5	56.5	73	47.9	0	1	292	0.00	30.141 
09:25	56.9	56.9	56.9	73	48.3	0	1	292	0.00	30.141 
09:30	57.2	57.2	57.2	71	47.9	0	1	292	0.00	30.141 
09:35	57.6	57.6	57.6	71	48.3	0	1	292	0.00	30.141 
09:40	58.1	58.1	58.1	69	48.0	0	1	292	0.00	30.141 
09:45	58.7	58.7	58.7	68	48.2	0	1	292	0.00	30.146 
09:50	59.2	59.2	59.2	68	48.6	0	1	292	0.00	30.146 
09:55	59.6	59.6	59.6	66	48.2	0	2	292	0.00	30.146 
10:00	60.1	60.1	60.1	64	47.9	0	3	292	0.00	30.147 
10:05	60.7	60.7	60.7	63	48.0	0	2	292	0.00	30.147 
10:10	61.3	61.3	61.3	62	48.2	0	2	292	0.00	30.147 
10:15	62.0	62.0	62.0	62	48.8	0	3	292	0.00	30.152 
10:20	62.6	62.6	62.6	60	48.5	0	1	292	0.00	30.152 
10:25	63.1	63.1	63.1	59	48.5	1	3	292	0.00	30.152 
10:30	63.7	63.7	63.7	59	49.1	0	3	292	0.00	30.155 
10:35	64.2	64.2	64.2	57	48.6	0	1	292	0.00	30.155 
10:40	64.7	64.7	64.7	57	49.1	1	3	292	0.00	30.155 
10:45	65.3	65.3	65.3	55	48.7	1	3	292	0.00	30.163 
10:50	66.0	66.0	66.0	57	50.3	0	1	292	0.00	30.163 
10:55	66.9	66.9	66.9	54	49.7	0	2	292	0.00	30.163 
11:00	67.4	67.4	67.4	52	49.2	0	5	292	0.00	30.163 
11:05	67.4	67.4	67.4	53	49.7	1	5	292	0.00	30.163 
11:10	67.8	67.8	67.8	53	50.0	0	2	292	0.00	30.163 
11:15	68.4	68.4	68.4	51	49.6	0	2	292	0.00	30.164 
11:20	68.8	68.8	68.8	52	50.4	0	2	292	0.00	30.164 
11:25	69.4	69.4	69.4	51	50.5	0	4	292	0.00	30.164 
11:30	69.4	69.4	69.4	48	48.8	1	3	292	0.00	30.164 
11:35	70.1	70.1	70.1	48	49.5	0	3	22	0.00	30.164 
11:40	70.4	70.4	70.4	46	48.6	1	4	22	0.00	30.164 
11:45	70.6	70.6	70.6	45	48.2	0	2	112	0.00	30.161 
11:50	70.6	70.6	70.6	46	48.8	0	3	135	0.00	30.161 
11:55	70.8	70.8	70.8	46	49.0	0	2	135	0.00	30.161 
12:00	71.1	71.1	71.1	46	49.3	0	2	270	0.00	30.159 
12:05	71.6	71.6	71.6	46	49.7	0	2	270	0.00	30.159 
12:10	71.6	71.6	71.6	43	47.9	1	4	270	0.00	30.159 
12:15	71.5	71.5	71.5	44	48.4	0	3	270	0.00	30.158 
12:20	71.6	71.6	71.6	44	48.5	0	2	270	0.00	30.158 
12:25	71.6	71.6	71.6	44	48.5	1	4	270	0.00	30.158 
12:30	72.0	72.0	72.0	43	48.3	1	4	270	0.00	30.152 
12:35	72.3	72.3	72.3	44	49.2	1	3	45	0.00	30.152 
12:40	72.7	72.7	72.7	41	47.6	0	2	248	0.00	30.152 
12:45	72.8	72.8	72.8	42	48.4	0	3	248	0.00	30.147 
12:50	72.8	72.8	72.8	41	47.7	1	3	292	0.00	30.147 
12:55	73.0	73.0	73.0	40	47.2	1	4	248	0.00	30.147 
13:00	73.2	73.2	73.2	43	49.3	0	4	45	0.00	30.145 
13:05	73.5	73.5	73.5	40	47.7	0	2	338	0.00	30.145 
13:10	73.7	73.7	73.7	39	47.2	1	3	315	0.00	30.145 
13:15	73.9	73.9	73.9	42	49.3	1	4	45	0.00	30.143 
13:20	74.0	74.0	74.0	41	48.8	1	5	270	0.00	30.143 
13:25	74.4	74.4	74.4	41	49.1	0	4	90	0.00	30.143 
13:30	74.4	74.4	74.4	38	47.1	1	3	292	0.00	30.142 
13:35	74.0	74.0	74.0	38	46.8	1	4	292	0.00	30.142 
13:40	74.4	74.4	74.4	40	48.5	1	4	270	0.00	30.142 
13:45	74.9	74.9	74.9	39	48.3	1	4	270	0.00	30.136 
13:50	75.1	75.1	77.4	38	47.7	1	3	248	0.00	30.136 
13:55	75.1	75.1	77.5	39	48.4	1	3	248	0.00	30.136 
14:00	75.1	75.1	77.4	38	47.7	1	4	90	0.00	30.132 
14:05	75.3	75.3	77.5	39	48.6	1	3	90	0.00	30.132 
14:10	75.4	75.4	77.4	36	46.6	2	9	112	0.00	30.132 
14:15	75.4	75.4	77.5	37	47.3	1	4	68	0.00	30.130 
14:20	75.4	75.4	77.5	37	47.3	0	2	22	0.00	30.130 
14:25	75.4	75.4	77.5	37	47.3	1	5	248	0.00	30.130 
14:30	75.8	75.8	77.6	36	46.9	1	4	45	0.00	30.131 
14:35	75.8	75.8	77.6	37	47.7	1	3	292	0.00	30.131 
14:40	75.8	75.8	77.7	40	49.7	1	4	270	0.00	30.131 
14:45	76.1	76.1	77.8	38	48.6	1	4	270	0.00	30.131 
14:50	76.3	76.3	77.7	35	46.6	1	3	248	0.00	30.131 
14:55	76.5	76.5	77.9	38	49.0	0	2	270	0.00	30.131 
15:00	76.8	76.8	78.0	37	48.5	1	4	68	0.00	30.125 
15:05	76.7	76.7	77.9	36	47.7	1	3	90	0.00	30.125 
15:10	76.3	76.3	77.8	37	48.1	1	4	270	0.00	30.125 
15:15	76.3	76.3	77.8	37	48.1	1	3	270	0.00	30.125 
15:20	76.3	76.3	77.8	37	48.1	1	5	270	0.00	30.125 
15:25	76.3	76.3	77.8	37	48.1	1	3	270	0.00	30.125 
15:30	76.5	76.5	77.8	35	46.8	0	3	270	0.00	30.121 
15:35	76.7	76.7	77.9	36	47.7	0	3	270	0.00	30.121 
15:40	76.8	76.8	78.0	37	48.5	0	3	270	0.00	30.121 
15:45	77.0	77.0	78.0	36	48.0	1	4	270	0.00	30.114 
15:50	76.8	76.8	78.0	37	48.5	1	3	292	0.00	30.114 
15:55	76.7	76.7	77.9	36	47.7	0	3	270	0.00	30.114 
16:00	76.7	76.7	78.0	37	48.4	0	3	315	0.00	30.115 
16:05	76.7	76.7	78.0	37	48.4	0	4	315	0.00	30.115 
16:10	76.7	76.7	77.9	35	47.0	0	2	135	0.00	30.115 
16:15	76.5	76.5	77.8	35	46.8	1	5	270	0.00	30.112 
16:20	76.3	76.3	77.7	35	46.6	1	5	270	0.00	30.112 
16:25	76.1	76.1	77.7	36	47.2	1	3	90	0.00	30.112 
16:30	76.1	76.1	77.7	36	47.2	1	3	90	0.00	30.111 
16:35	76.0	76.0	77.6	36	47.1	0	3	0	0.00	30.111 
16:40	76.0	76.0	77.7	37	47.8	0	1	0	0.00	30.111 
16:45	76.1	76.1	77.7	36	47.2	1	4	112	0.00	30.111 
16:50	76.0	76.0	77.7	37	47.8	1	5	68	0.00	30.111 
16:55	76.0	76.0	77.7	37	47.8	1	3	112	0.00	30.111 
17:00	75.8	75.8	77.6	37	47.7	0	3	112	0.00	30.111 
17:05	75.8	75.8	77.6	37	47.7	1	3	112	0.00	30.111 
17:10	75.8	75.8	77.6	37	47.7	1	5	68	0.00	30.111 
17:15	75.8	75.8	77.6	37	47.7	0	4	68	0.00	30.108 
17:20	75.6	75.6	77.6	38	48.2	1	5	68	0.00	30.108 
17:25	75.6	75.6	77.6	37	47.5	0	2	315	0.00	30.108 
17:30	75.6	75.6	77.6	37	47.5	0	1	315	0.00	30.107 
17:35	75.6	75.6	77.6	37	47.5	0	3	315	0.00	30.107 
17:40	75.6	75.6	77.6	38	48.2	0	1	0	0.00	30.107 
17:45	75.6	75.6	77.6	38	48.2	0	2	315	0.00	30.104 
17:50	75.6	75.6	77.6	37	47.5	0	2	338	0.00	30.104 
17:55	75.6	75.6	77.6	38	48.2	0	2	315	0.00	30.104 
18:00	75.6	75.6	77.6	38	48.2	0	2	315	0.00	30.101 
18:05	75.6	75.6	77.6	39	48.9	0	1	315	0.00	30.101 
18:10	75.4	75.4	77.5	38	48.0	0	2	315	0.00	30.101 
18:15	75.3	75.3	77.5	38	47.9	0	2	315	0.00	30.101 
18:20	74.9	74.9	74.9	39	48.3	0	2	22	0.00	30.101 
18:25	74.7	74.7	74.7	39	48.1	0	3	22	0.00	30.101 
18:30	74.6	74.6	74.6	39	48.0	0	1	22	0.00	30.101 
18:35	74.4	74.4	74.4	39	47.8	0	2	22	0.00	30.101 
18:40	74.2	74.2	74.2	40	48.3	0	2	135	0.00	30.101 
18:45	74.2	74.2	74.2	41	49.0	0	1	135	0.00	30.102 
18:50	74.0	74.0	74.0	40	48.1	0	2	112	0.00	30.102 
18:55	73.9	73.9	73.9	41	48.7	0	1	112	0.00	30.102 
19:00	73.7	73.7	73.7	40	47.9	0	2	112	0.00	30.099 
19:05	73.5	73.5	73.5	41	48.3	0	1	112	0.00	30.099 
19:10	73.3	73.3	73.3	41	48.2	0	1	112	0.00	30.099 
19:15	73.2	73.2	73.2	41	48.1	0	1	112	0.00	30.101 
19:20	73.0	73.0	73.0	41	47.9	0	1	112	0.00	30.101 
19:25	72.8	72.8	72.8	41	47.7	0	2	112	0.00	30.101 
19:30	72.5	72.5	72.5	42	48.1	0	1	112	0.00	30.104 
19:35	72.3	72.3	72.3	43	48.5	0	0	---	0.00	30.104 
19:40	72.0	72.0	72.0	43	48.3	0	1	112	0.00	30.104 
19:45	71.8	71.8	71.8	43	48.1	0	0	---	0.00	30.103 
19:50	71.3	71.3	71.3	44	48.2	0	0	---	0.00	30.103 
19:55	71.1	71.1	71.1	45	48.7	0	0	---	0.00	30.103 
20:00	70.8	70.8	70.8	46	49.0	0	0	---	0.00	30.110 
20:05	70.4	70.4	70.4	46	48.6	0	0	---	0.00	30.110 
20:10	70.1	70.1	70.1	47	48.9	0	0	---	0.00	30.110 
20:15	69.8	69.8	69.8	48	49.2	0	0	---	0.00	30.111 
20:20	69.4	69.4	69.4	48	48.8	0	0	---	0.00	30.111 
20:25	69.1	69.1	69.1	48	48.6	0	0	---	0.00	30.111 
20:30	68.9	68.9	68.9	49	48.9	0	0	---	0.00	30.111 
20:35	68.6	68.6	68.6	49	48.7	0	0	---	0.00	30.111 
20:40	68.4	68.4	68.4	49	48.5	0	0	---	0.00	30.111 
20:45	68.3	68.3	68.3	50	48.9	0	0	---	0.00	30.120 
20:50	67.9	67.9	67.9	50	48.6	0	0	---	0.00	30.120 
20:55	67.8	67.8	67.8	50	48.5	0	0	---	0.00	30.120 
21:00	67.4	67.4	67.4	50	48.1	0	0	---	0.00	30.128 
21:05	67.3	67.3	67.3	50	48.0	0	0	---	0.00	30.128 
21:10	67.1	67.1	67.1	51	48.4	0	0	---	0.00	30.128 
21:15	67.1	67.1	67.1	52	48.9	0	0	---	0.00	30.126 
21:20	66.8	66.8	66.8	52	48.6	0	0	---	0.00	30.126 
21:25	66.6	66.6	66.6	53	48.9	0	0	---	0.00	30.126 
21:30	66.3	66.3	66.3	53	48.6	0	0	---	0.00	30.133 
21:35	66.0	66.0	66.0	55	49.4	0	0	---	0.00	30.133 
21:40	65.6	65.6	65.6	55	49.0	0	0	---	0.00	30.133 
21:45	65.5	65.5	65.5	56	49.4	0	0	---	0.00	30.140 
21:50	65.2	65.2	65.2	56	49.1	0	0	---	0.00	30.140 
21:55	64.8	64.8	64.8	58	49.7	0	0	---	0.00	30.140 
22:00	64.5	64.5	64.5	58	49.4	0	0	---	0.00	30.144 
22:05	64.2	64.2	64.2	58	49.1	0	0	---	0.00	30.144 
22:10	63.9	63.9	63.9	59	49.3	0	0	---	0.00	30.144 
22:15	63.7	63.7	63.7	61	50.0	0	0	---	0.00	30.142 
22:20	63.4	63.4	63.4	62	50.1	0	0	---	0.00	30.142 
22:25	63.1	63.1	63.1	62	49.9	0	0	---	0.00	30.142 
22:30	62.7	62.7	62.7	64	50.3	0	0	---	0.00	30.143 
22:35	62.4	62.4	62.4	65	50.5	0	0	---	0.00	30.143 
22:40	62.1	62.1	62.1	65	50.2	0	0	---	0.00	30.143 
22:45	62.0	62.0	62.0	66	50.5	0	0	---	0.00	30.147 
22:50	61.6	61.6	61.6	67	50.5	0	0	---	0.00	30.147 
22:55	61.5	61.5	61.5	68	50.8	0	0	---	0.00	30.147 
23:00	61.3	61.3	61.3	68	50.6	0	0	---	0.00	30.148 
23:05	61.0	61.0	61.0	69	50.8	0	0	---	0.00	30.148 
23:10	60.9	60.9	60.9	69	50.7	0	0	---	0.00	30.148 
23:15	60.7	60.7	60.7	70	50.9	0	0	---	0.00	30.150 
23:20	60.7	60.7	60.7	69	50.5	0	0	---	0.00	30.150 
23:25	60.7	60.7	60.7	69	50.5	0	0	---	0.00	30.150 
23:30	60.7	60.7	60.7	69	50.5	0	0	---	0.00	30.151 
23:35	60.7	60.7	60.7	69	50.5	0	0	---	0.00	30.151 
23:40	60.7	60.7	60.7	69	50.5	0	0	---	0.00	30.151 
23:45	60.7	60.7	60.7	69	50.5	0	0	---	0.00	30.152 
23:50	60.7	60.7	60.7	68	50.1	0	0	---	0.00	30.152 
23:55	60.9	60.9	60.9	68	50.3	0	0	---	0.00	30.152 

CoCoRaHS
IN-AL-39
A2 Web Hosting
Creative Commons License
GoDaddy
search engine by freefind advanced

loaded 2018-11-13 22:41:13 • last modified 2010-11-18 10:43:29
Privacy PolicyDisclaimer
• wx.awcolley.com is powered by PmWiki v.2002016 •
• all content (unless otherwise noted) © 2018 A W Colley